MDT,Max TemperatureF,Mean TemperatureF,Min TemperatureF,Max Dew PointF,MeanDew PointF,Min DewpointF,Max Humidity, Mean Humidity, Min Humidity, Max Sea Level PressureIn, Mean Sea Level PressureIn, Min Sea Level PressureIn, Max VisibilityMiles, Mean VisibilityMiles, Min VisibilityMiles, Max Wind SpeedMPH, Mean Wind SpeedMPH, Max Gust SpeedMPH,PrecipitationIn, CloudCover, Events, WindDirDegrees
2013-10-1,81,64,47,47,44,35,80,54,28,29.88,29.80,29.64,10,10,10,18,8,24,0.00,0,,70
2013-10-2,87,67,46,49,43,35,93,55,16,29.83,29.74,29.65,10,10,8,13,4,20,0.00,0,,157
2013-10-3,82,63,43,50,44,38,96,61,26,29.72,29.61,29.49,10,10,6,17,7,28,0.00,0,,357
2013-10-4,62,50,37,52,39,22,100,65,29,30.14,29.79,29.54,10,7,0,31,14,43,0.00,4,Fog,328
2013-10-5,65,48,30,24,19,11,69,41,13,30.22,30.14,30.04,10,10,7,22,9,29,0.00,0,,291
2013-10-6,75,52,28,34,24,15,70,45,20,30.23,30.16,30.10,10,10,10,25,9,32,0.00,0,,271
2013-10-7,86,59,31,32,27,22,82,46,9,30.16,30.01,29.81,10,8,1,21,7,31,0.00,0,,180
2013-10-8,88,63,37,34,28,24,59,35,10,29.79,29.68,29.58,10,10,10,28,11,39,0.00,0,,194
2013-10-9,87,64,40,35,31,27,62,37,11,29.75,29.68,29.60,10,10,10,28,10,36,0.00,0,,197
2013-10-10,84,64,44,48,38,28,71,46,20,29.78,29.62,29.42,10,8,2,53,19,60,0.02,3,Rain,210
2013-10-11,75,59,42,39,31,25,76,47,17,29.96,29.70,29.53,10,10,10,26,15,32,0.00,1,,53
2013-10-12,65,50,35,40,33,30,92,60,28,30.18,30.12,29.99,10,10,10,21,9,31,0.00,0,,161
2013-10-13,72,54,36,55,43,32,89,63,37,30.22,30.07,29.88,10,9,4,38,18,48,0.00,2,,146
2013-10-14,73,58,42,57,45,22,87,51,15,30.03,29.85,29.68,10,9,2,35,18,46,0.40,3,Rain-Thunderstorm,224
2013-10-15,56,45,34,31,28,26,70,51,32,30.27,30.18,30.06,10,10,10,21,9,25,0.00,1,,359
2013-10-16,55,43,31,35,32,28,92,69,46,30.20,30.09,29.99,10,10,9,13,4,15,T,5,,207
2013-10-17,63,46,28,33,28,23,92,57,21,30.12,30.02,29.94,10,10,9,16,7,20,0.00,1,,144
2013-10-18,50,39,28,36,32,27,100,77,53,30.24,30.16,29.99,10,6,0,15,7,18,0.14,7,Fog-Snow,326
2013-10-19,66,47,27,33,27,20,92,55,18,30.19,30.03,29.85,10,10,10,18,8,22,0.00,0,,231
2013-10-20,61,46,30,40,33,27,92,64,36,30.07,29.92,29.80,10,10,10,21,10,25,0.03,2,Rain,342
2013-10-21,63,49,34,41,34,27,100,63,25,30.18,30.11,30.05,10,10,7,16,7,21,0.00,1,,267
2013-10-22,71,53,35,35,32,30,79,51,23,30.17,30.10,30.04,10,10,4,15,6,18,0.00,1,,258
2013-10-23,74,52,30,34,31,28,92,56,20,30.14,30.07,30.01,10,10,10,15,6,21,0.00,0,,2
2013-10-24,58,46,33,36,33,30,92,66,40,30.32,30.25,30.13,10,10,8,20,9,26,0.00,0,,114
2013-10-25,63,49,34,41,36,30,82,61,39,30.29,30.12,29.99,10,10,9,13,5,16,0.00,2,,118
2013-10-26,65,52,38,39,33,29,76,52,27,30.28,30.17,30.01,10,10,10,15,7,22,0.00,0,,16
2013-10-27,77,53,28,32,28,22,85,49,12,30.10,29.91,29.73,10,10,10,15,4,21,0.00,0,,252
2013-10-28,58,46,33,35,32,29,85,63,40,30.04,29.91,29.72,10,9,3,24,9,28,0.00,3,,18
2013-10-29,56,47,37,39,36,32,93,70,47,30.02,29.95,29.84,10,7,2,18,7,24,0.00,6,,330
2013-10-30,63,52,40,42,39,34,96,66,36,29.94,29.83,29.68,10,6,1,17,6,22,0.04,5,Rain,115
2013-10-31,63,47,31,40,31,16,92,54,16,29.85,29.77,29.69,10,10,8,13,6,17,0.06,2,Rain,269